sensor_id;sensor_type;location;lat;lon;timestamp;P1;durP1;ratioP1;P2;durP2;ratioP2
73421;SDS011;61637;47.760;-122.022;2023-09-19T00:00:01;9.1;;;1.8;;
73421;SDS011;61637;47.760;-122.022;2023-09-19T00:02:01;7.8;;;1.8;;
73421;SDS011;61637;47.760;-122.022;2023-09-19T00:04:01;7.9;;;1.8;;
73421;SDS011;61637;47.760;-122.022;2023-09-19T00:06:01;7.7;;;1.8;;
73421;SDS011;61637;47.760;-122.022;2023-09-19T00:08:01;8.8;;;1.8;;
73421;SDS011;61637;47.760;-122.022;2023-09-19T00:10:01;6.7;;;1.4;;
73421;SDS011;61637;47.760;-122.022;2023-09-19T00:12:02;8.6;;;1.8;;
73421;SDS011;61637;47.760;-122.022;2023-09-19T00:14:00;10.0;;;2.0;;
73421;SDS011;61637;47.760;-122.022;2023-09-19T00:16:01;10.2;;;2.0;;
73421;SDS011;61637;47.760;-122.022;2023-09-19T00:18:01;9.8;;;1.8;;
73421;SDS011;61637;47.760;-122.022;2023-09-19T00:20:01;8.2;;;1.9;;
73421;SDS011;61637;47.760;-122.022;2023-09-19T00:22:01;9.0;;;2.0;;
73421;SDS011;61637;47.760;-122.022;2023-09-19T00:24:01;8.5;;;1.9;;
73421;SDS011;61637;47.760;-122.022;2023-09-19T00:26:01;9.4;;;2.0;;
73421;SDS011;61637;47.760;-122.022;2023-09-19T00:28:01;10.5;;;1.8;;
73421;SDS011;61637;47.760;-122.022;2023-09-19T00:30:01;9.1;;;1.9;;
73421;SDS011;61637;47.760;-122.022;2023-09-19T00:32:01;11.8;;;2.0;;
73421;SDS011;61637;47.760;-122.022;2023-09-19T00:34:01;9.0;;;2.1;;
73421;SDS011;61637;47.760;-122.022;2023-09-19T00:36:01;12.2;;;2.0;;
73421;SDS011;61637;47.760;-122.022;2023-09-19T00:38:01;9.5;;;2.1;;
73421;SDS011;61637;47.760;-122.022;2023-09-19T00:40:01;8.8;;;1.8;;
73421;SDS011;61637;47.760;-122.022;2023-09-19T00:42:01;10.2;;;1.9;;
73421;SDS011;61637;47.760;-122.022;2023-09-19T00:44:00;10.0;;;1.7;;
73421;SDS011;61637;47.760;-122.022;2023-09-19T00:46:01;9.4;;;2.0;;
73421;SDS011;61637;47.760;-122.022;2023-09-19T00:48:01;10.3;;;2.0;;
73421;SDS011;61637;47.760;-122.022;2023-09-19T00:50:01;8.5;;;1.9;;
73421;SDS011;61637;47.760;-122.022;2023-09-19T00:52:01;10.0;;;1.9;;
73421;SDS011;61637;47.760;-122.022;2023-09-19T00:54:02;11.7;;;1.9;;
73421;SDS011;61637;47.760;-122.022;2023-09-19T00:56:02;10.4;;;2.3;;
73421;SDS011;61637;47.760;-122.022;2023-09-19T00:58:01;8.5;;;1.9;;
73421;SDS011;61637;47.760;-122.022;2023-09-19T01:00:02;8.3;;;1.7;;
73421;SDS011;61637;47.760;-122.022;2023-09-19T01:02:02;10.0;;;1.8;;
73421;SDS011;61637;47.760;-122.022;2023-09-19T01:04:01;9.7;;;1.7;;
73421;SDS011;61637;47.760;-122.022;2023-09-19T01:06:02;9.0;;;1.8;;
73421;SDS011;61637;47.760;-122.022;2023-09-19T01:08:01;7.7;;;1.7;;
73421;SDS011;61637;47.760;-122.022;2023-09-19T01:10:02;8.9;;;1.8;;
73421;SDS011;61637;47.760;-122.022;2023-09-19T01:12:02;12.8;;;2.2;;
73421;SDS011;61637;47.760;-122.022;2023-09-19T01:14:08;7.8;;;1.7;;
73421;SDS011;61637;47.760;-122.022;2023-09-19T01:16:10;10.3;;;2.0;;
73421;SDS011;61637;47.760;-122.022;2023-09-19T01:18:07;9.3;;;1.9;;
73421;SDS011;61637;47.760;-122.022;2023-09-19T01:20:17;8.5;;;1.6;;
73421;SDS011;61637;47.760;-122.022;2023-09-19T01:22:07;8.2;;;1.9;;
73421;SDS011;61637;47.760;-122.022;2023-09-19T01:24:22;10.9;;;1.8;;
73421;SDS011;61637;47.760;-122.022;2023-09-19T01:26:15;7.2;;;1.6;;
73421;SDS011;61637;47.760;-122.022;2023-09-19T01:28:18;10.1;;;1.6;;
73421;SDS011;61637;47.760;-122.022;2023-09-19T01:30:09;10.5;;;1.9;;
73421;SDS011;61637;47.760;-122.022;2023-09-19T01:32:03;8.4;;;1.8;;
73421;SDS011;61637;47.760;-122.022;2023-09-19T01:34:02;8.7;;;1.8;;
73421;SDS011;61637;47.760;-122.022;2023-09-19T01:36:01;9.3;;;1.7;;
73421;SDS011;61637;47.760;-122.022;2023-09-19T01:38:01;10.6;;;1.8;;
73421;SDS011;61637;47.760;-122.022;2023-09-19T01:40:04;9.7;;;1.8;;
73421;SDS011;61637;47.760;-122.022;2023-09-19T01:42:07;9.6;;;1.8;;
73421;SDS011;61637;47.760;-122.022;2023-09-19T01:44:02;8.6;;;1.8;;
73421;SDS011;61637;47.760;-122.022;2023-09-19T01:46:05;9.6;;;1.7;;
73421;SDS011;61637;47.760;-122.022;2023-09-19T01:48:10;9.3;;;1.7;;
73421;SDS011;61637;47.760;-122.022;2023-09-19T01:50:06;8.3;;;1.8;;
73421;SDS011;61637;47.760;-122.022;2023-09-19T01:52:05;10.0;;;1.7;;
73421;SDS011;61637;47.760;-122.022;2023-09-19T01:54:03;8.5;;;2.0;;
73421;SDS011;61637;47.760;-122.022;2023-09-19T01:56:02;16.8;;;2.3;;
73421;SDS011;61637;47.760;-122.022;2023-09-19T01:58:06;11.7;;;2.0;;
73421;SDS011;61637;47.760;-122.022;2023-09-19T02:00:05;13.1;;;2.2;;
73421;SDS011;61637;47.760;-122.022;2023-09-19T02:02:02;10.4;;;2.1;;
73421;SDS011;61637;47.760;-122.022;2023-09-19T02:04:01;10.0;;;2.1;;
73421;SDS011;61637;47.760;-122.022;2023-09-19T02:06:01;9.5;;;1.9;;
73421;SDS011;61637;47.760;-122.022;2023-09-19T02:08:01;11.7;;;2.2;;
73421;SDS011;61637;47.760;-122.022;2023-09-19T02:10:01;10.5;;;2.1;;
73421;SDS011;61637;47.760;-122.022;2023-09-19T02:12:01;11.3;;;2.1;;
73421;SDS011;61637;47.760;-122.022;2023-09-19T02:14:01;7.8;;;1.6;;
73421;SDS011;61637;47.760;-122.022;2023-09-19T02:16:01;10.1;;;2.1;;
73421;SDS011;61637;47.760;-122.022;2023-09-19T02:18:00;10.4;;;2.0;;
73421;SDS011;61637;47.760;-122.022;2023-09-19T02:20:01;11.4;;;2.0;;
73421;SDS011;61637;47.760;-122.022;2023-09-19T02:22:01;12.7;;;2.1;;
73421;SDS011;61637;47.760;-122.022;2023-09-19T02:24:01;11.3;;;1.8;;
73421;SDS011;61637;47.760;-122.022;2023-09-19T02:26:01;9.5;;;2.1;;
73421;SDS011;61637;47.760;-122.022;2023-09-19T02:28:01;14.4;;;2.1;;
73421;SDS011;61637;47.760;-122.022;2023-09-19T02:30:01;10.1;;;2.1;;
73421;SDS011;61637;47.760;-122.022;2023-09-19T02:32:01;13.1;;;2.0;;
73421;SDS011;61637;47.760;-122.022;2023-09-19T02:34:00;11.7;;;2.0;;
73421;SDS011;61637;47.760;-122.022;2023-09-19T02:36:01;11.9;;;2.2;;
73421;SDS011;61637;47.760;-122.022;2023-09-19T02:38:01;13.7;;;2.2;;
73421;SDS011;61637;47.760;-122.022;2023-09-19T02:40:01;12.3;;;2.1;;
73421;SDS011;61637;47.760;-122.022;2023-09-19T02:42:01;12.7;;;2.1;;
73421;SDS011;61637;47.760;-122.022;2023-09-19T02:44:01;10.0;;;2.0;;
73421;SDS011;61637;47.760;-122.022;2023-09-19T02:46:01;12.2;;;2.1;;
73421;SDS011;61637;47.760;-122.022;2023-09-19T02:48:01;12.1;;;2.0;;
73421;SDS011;61637;47.760;-122.022;2023-09-19T02:50:01;11.4;;;2.1;;
73421;SDS011;61637;47.760;-122.022;2023-09-19T02:52:01;10.9;;;1.8;;
73421;SDS011;61637;47.760;-122.022;2023-09-19T02:54:01;10.5;;;2.1;;
73421;SDS011;61637;47.760;-122.022;2023-09-19T02:56:01;9.6;;;2.1;;
73421;SDS011;61637;47.760;-122.022;2023-09-19T02:58:01;11.5;;;2.0;;
73421;SDS011;61637;47.760;-122.022;2023-09-19T03:00:01;10.1;;;2.0;;
73421;SDS011;61637;47.760;-122.022;2023-09-19T03:02:01;8.9;;;2.1;;
73421;SDS011;61637;47.760;-122.022;2023-09-19T03:04:01;10.9;;;2.2;;
73421;SDS011;61637;47.760;-122.022;2023-09-19T03:06:01;12.4;;;2.4;;
73421;SDS011;61637;47.760;-122.022;2023-09-19T03:08:01;12.0;;;2.4;;
73421;SDS011;61637;47.760;-122.022;2023-09-19T03:10:01;14.2;;;2.5;;
73421;SDS011;61637;47.760;-122.022;2023-09-19T03:12:01;13.6;;;2.0;;
73421;SDS011;61637;47.760;-122.022;2023-09-19T03:14:01;16.5;;;2.1;;
73421;SDS011;61637;47.760;-122.022;2023-09-19T03:16:01;11.6;;;2.1;;
73421;SDS011;61637;47.760;-122.022;2023-09-19T03:18:01;10.1;;;2.2;;
73421;SDS011;61637;47.760;-122.022;2023-09-19T03:20:01;11.9;;;2.4;;
73421;SDS011;61637;47.760;-122.022;2023-09-19T03:22:01;12.9;;;2.3;;
73421;SDS011;61637;47.760;-122.022;2023-09-19T03:24:01;13.0;;;2.3;;
73421;SDS011;61637;47.760;-122.022;2023-09-19T03:26:01;10.9;;;2.0;;
73421;SDS011;61637;47.760;-122.022;2023-09-19T03:28:01;14.2;;;2.2;;
73421;SDS011;61637;47.760;-122.022;2023-09-19T03:30:01;13.1;;;2.6;;
73421;SDS011;61637;47.760;-122.022;2023-09-19T03:32:01;11.7;;;2.2;;
73421;SDS011;61637;47.760;-122.022;2023-09-19T03:34:01;11.9;;;2.2;;
73421;SDS011;61637;47.760;-122.022;2023-09-19T03:36:02;11.8;;;2.2;;
73421;SDS011;61637;47.760;-122.022;2023-09-19T03:38:01;14.7;;;2.5;;
73421;SDS011;61637;47.760;-122.022;2023-09-19T03:40:01;12.9;;;2.3;;
73421;SDS011;61637;47.760;-122.022;2023-09-19T03:42:01;13.3;;;2.5;;
73421;SDS011;61637;47.760;-122.022;2023-09-19T03:44:01;14.0;;;2.5;;
73421;SDS011;61637;47.760;-122.022;2023-09-19T03:46:02;12.3;;;2.2;;
73421;SDS011;61637;47.760;-122.022;2023-09-19T03:48:01;11.4;;;2.3;;
73421;SDS011;61637;47.760;-122.022;2023-09-19T03:50:01;15.9;;;2.7;;
73421;SDS011;61637;47.760;-122.022;2023-09-19T03:52:01;13.6;;;2.5;;
73421;SDS011;61637;47.760;-122.022;2023-09-19T03:54:01;12.9;;;2.4;;
73421;SDS011;61637;47.760;-122.022;2023-09-19T03:56:00;12.9;;;2.4;;
73421;SDS011;61637;47.760;-122.022;2023-09-19T03:58:01;12.3;;;2.2;;
73421;SDS011;61637;47.760;-122.022;2023-09-19T04:00:01;15.9;;;2.5;;
73421;SDS011;61637;47.760;-122.022;2023-09-19T04:02:01;13.3;;;2.5;;
73421;SDS011;61637;47.760;-122.022;2023-09-19T04:04:01;14.0;;;2.3;;
73421;SDS011;61637;47.760;-122.022;2023-09-19T04:06:01;12.2;;;2.1;;
73421;SDS011;61637;47.760;-122.022;2023-09-19T04:08:01;14.5;;;2.4;;
73421;SDS011;61637;47.760;-122.022;2023-09-19T04:10:01;12.3;;;2.4;;
73421;SDS011;61637;47.760;-122.022;2023-09-19T04:12:01;13.4;;;2.2;;
73421;SDS011;61637;47.760;-122.022;2023-09-19T04:14:03;13.9;;;2.4;;
73421;SDS011;61637;47.760;-122.022;2023-09-19T04:16:01;12.9;;;2.2;;
73421;SDS011;61637;47.760;-122.022;2023-09-19T04:18:01;12.2;;;2.2;;
73421;SDS011;61637;47.760;-122.022;2023-09-19T04:20:01;9.8;;;2.2;;
73421;SDS011;61637;47.760;-122.022;2023-09-19T04:22:01;12.6;;;2.2;;
73421;SDS011;61637;47.760;-122.022;2023-09-19T04:24:01;11.8;;;2.2;;
73421;SDS011;61637;47.760;-122.022;2023-09-19T04:26:01;12.0;;;2.1;;
73421;SDS011;61637;47.760;-122.022;2023-09-19T04:28:02;14.2;;;2.4;;
73421;SDS011;61637;47.760;-122.022;2023-09-19T04:30:01;12.5;;;2.1;;
73421;SDS011;61637;47.760;-122.022;2023-09-19T04:32:00;12.4;;;2.5;;
73421;SDS011;61637;47.760;-122.022;2023-09-19T04:34:00;13.9;;;2.1;;
73421;SDS011;61637;47.760;-122.022;2023-09-19T04:36:01;14.7;;;2.6;;
73421;SDS011;61637;47.760;-122.022;2023-09-19T04:38:01;12.6;;;2.2;;
73421;SDS011;61637;47.760;-122.022;2023-09-19T04:40:01;14.5;;;2.3;;
73421;SDS011;61637;47.760;-122.022;2023-09-19T04:42:01;14.2;;;2.1;;
73421;SDS011;61637;47.760;-122.022;2023-09-19T04:44:01;13.6;;;2.1;;
73421;SDS011;61637;47.760;-122.022;2023-09-19T04:46:02;11.3;;;2.1;;
73421;SDS011;61637;47.760;-122.022;2023-09-19T04:48:01;14.5;;;2.3;;
73421;SDS011;61637;47.760;-122.022;2023-09-19T04:50:01;13.3;;;2.0;;
73421;SDS011;61637;47.760;-122.022;2023-09-19T04:52:01;13.0;;;2.3;;
73421;SDS011;61637;47.760;-122.022;2023-09-19T04:54:01;13.8;;;2.1;;
73421;SDS011;61637;47.760;-122.022;2023-09-19T04:56:01;13.0;;;2.2;;
73421;SDS011;61637;47.760;-122.022;2023-09-19T04:58:01;12.3;;;2.2;;
73421;SDS011;61637;47.760;-122.022;2023-09-19T05:00:01;12.9;;;2.2;;
73421;SDS011;61637;47.760;-122.022;2023-09-19T05:02:01;15.4;;;2.7;;
73421;SDS011;61637;47.760;-122.022;2023-09-19T05:04:01;14.6;;;2.6;;
73421;SDS011;61637;47.760;-122.022;2023-09-19T05:06:01;13.1;;;2.5;;
73421;SDS011;61637;47.760;-122.022;2023-09-19T05:08:01;16.8;;;2.7;;
73421;SDS011;61637;47.760;-122.022;2023-09-19T05:10:01;15.1;;;2.6;;
73421;SDS011;61637;47.760;-122.022;2023-09-19T05:12:01;12.6;;;2.2;;
73421;SDS011;61637;47.760;-122.022;2023-09-19T05:14:01;13.5;;;2.2;;
73421;SDS011;61637;47.760;-122.022;2023-09-19T05:16:01;13.5;;;2.4;;
73421;SDS011;61637;47.760;-122.022;2023-09-19T05:18:01;12.9;;;2.4;;
73421;SDS011;61637;47.760;-122.022;2023-09-19T05:20:01;12.0;;;2.3;;
73421;SDS011;61637;47.760;-122.022;2023-09-19T05:22:01;13.5;;;2.2;;
73421;SDS011;61637;47.760;-122.022;2023-09-19T05:24:01;14.5;;;2.4;;
73421;SDS011;61637;47.760;-122.022;2023-09-19T05:26:01;15.1;;;2.5;;
73421;SDS011;61637;47.760;-122.022;2023-09-19T05:28:01;13.9;;;2.2;;
73421;SDS011;61637;47.760;-122.022;2023-09-19T05:30:01;22.1;;;2.7;;
73421;SDS011;61637;47.760;-122.022;2023-09-19T05:32:01;11.6;;;2.1;;
73421;SDS011;61637;47.760;-122.022;2023-09-19T05:34:01;16.9;;;2.5;;
73421;SDS011;61637;47.760;-122.022;2023-09-19T05:36:01;14.7;;;2.5;;
73421;SDS011;61637;47.760;-122.022;2023-09-19T05:38:01;11.6;;;2.1;;
73421;SDS011;61637;47.760;-122.022;2023-09-19T05:40:00;11.8;;;2.2;;
73421;SDS011;61637;47.760;-122.022;2023-09-19T05:42:01;16.4;;;2.7;;
73421;SDS011;61637;47.760;-122.022;2023-09-19T05:44:00;14.0;;;2.4;;
73421;SDS011;61637;47.760;-122.022;2023-09-19T05:46:00;13.4;;;2.2;;
73421;SDS011;61637;47.760;-122.022;2023-09-19T05:48:08;15.4;;;2.2;;
73421;SDS011;61637;47.760;-122.022;2023-09-19T05:50:01;14.0;;;2.4;;
73421;SDS011;61637;47.760;-122.022;2023-09-19T05:52:01;12.5;;;2.4;;
73421;SDS011;61637;47.760;-122.022;2023-09-19T05:54:01;14.2;;;2.4;;
73421;SDS011;61637;47.760;-122.022;2023-09-19T05:56:01;12.8;;;2.4;;
73421;SDS011;61637;47.760;-122.022;2023-09-19T05:58:01;14.5;;;2.4;;
73421;SDS011;61637;47.760;-122.022;2023-09-19T06:00:03;12.8;;;2.6;;
73421;SDS011;61637;47.760;-122.022;2023-09-19T06:02:01;14.9;;;2.2;;
73421;SDS011;61637;47.760;-122.022;2023-09-19T06:04:01;12.8;;;2.4;;
73421;SDS011;61637;47.760;-122.022;2023-09-19T06:06:01;11.8;;;2.1;;
73421;SDS011;61637;47.760;-122.022;2023-09-19T06:08:01;17.9;;;2.5;;
73421;SDS011;61637;47.760;-122.022;2023-09-19T06:10:01;11.9;;;2.2;;
73421;SDS011;61637;47.760;-122.022;2023-09-19T06:12:01;13.9;;;2.2;;
73421;SDS011;61637;47.760;-122.022;2023-09-19T06:14:01;14.6;;;2.6;;
73421;SDS011;61637;47.760;-122.022;2023-09-19T06:16:01;12.4;;;2.1;;
73421;SDS011;61637;47.760;-122.022;2023-09-19T06:18:01;14.0;;;2.4;;
73421;SDS011;61637;47.760;-122.022;2023-09-19T06:20:01;14.5;;;2.5;;
73421;SDS011;61637;47.760;-122.022;2023-09-19T06:22:01;16.5;;;2.6;;
73421;SDS011;61637;47.760;-122.022;2023-09-19T06:24:01;12.5;;;2.4;;
73421;SDS011;61637;47.760;-122.022;2023-09-19T06:26:01;15.0;;;2.3;;
73421;SDS011;61637;47.760;-122.022;2023-09-19T06:28:01;16.7;;;2.4;;
73421;SDS011;61637;47.760;-122.022;2023-09-19T06:30:01;13.5;;;2.2;;
73421;SDS011;61637;47.760;-122.022;2023-09-19T06:32:01;12.0;;;2.2;;
73421;SDS011;61637;47.760;-122.022;2023-09-19T06:34:01;12.3;;;2.4;;
73421;SDS011;61637;47.760;-122.022;2023-09-19T06:36:03;15.5;;;2.1;;
73421;SDS011;61637;47.760;-122.022;2023-09-19T06:38:03;13.5;;;2.4;;
73421;SDS011;61637;47.760;-122.022;2023-09-19T06:40:01;14.3;;;2.4;;
73421;SDS011;61637;47.760;-122.022;2023-09-19T06:42:01;12.4;;;2.1;;
73421;SDS011;61637;47.760;-122.022;2023-09-19T06:44:01;12.4;;;2.1;;
73421;SDS011;61637;47.760;-122.022;2023-09-19T06:46:01;14.1;;;2.6;;
73421;SDS011;61637;47.760;-122.022;2023-09-19T06:48:01;16.6;;;2.9;;
73421;SDS011;61637;47.760;-122.022;2023-09-19T06:50:02;13.8;;;2.5;;
73421;SDS011;61637;47.760;-122.022;2023-09-19T06:52:01;17.9;;;2.5;;
73421;SDS011;61637;47.760;-122.022;2023-09-19T06:54:01;13.2;;;2.3;;
73421;SDS011;61637;47.760;-122.022;2023-09-19T06:56:01;12.4;;;2.2;;
73421;SDS011;61637;47.760;-122.022;2023-09-19T06:58:01;13.3;;;2.5;;
73421;SDS011;61637;47.760;-122.022;2023-09-19T07:00:01;13.0;;;2.6;;
73421;SDS011;61637;47.760;-122.022;2023-09-19T07:02:01;15.0;;;2.5;;
73421;SDS011;61637;47.760;-122.022;2023-09-19T07:04:01;13.1;;;2.5;;
73421;SDS011;61637;47.760;-122.022;2023-09-19T07:06:01;12.5;;;2.7;;
73421;SDS011;61637;47.760;-122.022;2023-09-19T07:08:01;12.9;;;2.2;;
73421;SDS011;61637;47.760;-122.022;2023-09-19T07:10:01;14.3;;;2.7;;
73421;SDS011;61637;47.760;-122.022;2023-09-19T07:12:01;11.3;;;2.1;;
73421;SDS011;61637;47.760;-122.022;2023-09-19T07:14:01;13.4;;;2.0;;
73421;SDS011;61637;47.760;-122.022;2023-09-19T07:16:01;13.1;;;2.2;;
73421;SDS011;61637;47.760;-122.022;2023-09-19T07:18:01;16.3;;;2.4;;
73421;SDS011;61637;47.760;-122.022;2023-09-19T07:20:01;14.2;;;2.7;;
73421;SDS011;61637;47.760;-122.022;2023-09-19T07:22:01;13.5;;;2.4;;
73421;SDS011;61637;47.760;-122.022;2023-09-19T07:24:01;14.6;;;2.3;;
73421;SDS011;61637;47.760;-122.022;2023-09-19T07:26:01;12.5;;;2.3;;
73421;SDS011;61637;47.760;-122.022;2023-09-19T07:28:01;12.6;;;2.2;;
73421;SDS011;61637;47.760;-122.022;2023-09-19T07:30:01;10.4;;;2.1;;
73421;SDS011;61637;47.760;-122.022;2023-09-19T07:32:01;12.3;;;2.2;;
73421;SDS011;61637;47.760;-122.022;2023-09-19T07:34:01;15.3;;;2.2;;
73421;SDS011;61637;47.760;-122.022;2023-09-19T07:36:01;12.1;;;2.2;;
73421;SDS011;61637;47.760;-122.022;2023-09-19T07:38:01;13.2;;;2.3;;
73421;SDS011;61637;47.760;-122.022;2023-09-19T07:40:02;13.1;;;2.3;;
73421;SDS011;61637;47.760;-122.022;2023-09-19T07:42:01;13.8;;;2.4;;
73421;SDS011;61637;47.760;-122.022;2023-09-19T07:44:01;12.7;;;2.6;;
73421;SDS011;61637;47.760;-122.022;2023-09-19T07:46:03;12.2;;;2.1;;
73421;SDS011;61637;47.760;-122.022;2023-09-19T07:48:01;13.8;;;2.5;;
73421;SDS011;61637;47.760;-122.022;2023-09-19T07:50:01;12.2;;;2.1;;
73421;SDS011;61637;47.760;-122.022;2023-09-19T07:52:01;13.3;;;2.2;;
73421;SDS011;61637;47.760;-122.022;2023-09-19T07:54:01;10.5;;;2.1;;
73421;SDS011;61637;47.760;-122.022;2023-09-19T07:56:03;14.8;;;2.1;;
73421;SDS011;61637;47.760;-122.022;2023-09-19T07:58:01;12.5;;;2.4;;
73421;SDS011;61637;47.760;-122.022;2023-09-19T08:00:01;14.6;;;2.7;;
73421;SDS011;61637;47.760;-122.022;2023-09-19T08:02:01;10.4;;;2.1;;
73421;SDS011;61637;47.760;-122.022;2023-09-19T08:04:01;14.8;;;2.4;;
73421;SDS011;61637;47.760;-122.022;2023-09-19T08:06:01;16.4;;;2.3;;
73421;SDS011;61637;47.760;-122.022;2023-09-19T08:08:01;13.4;;;2.2;;
73421;SDS011;61637;47.760;-122.022;2023-09-19T08:10:01;14.7;;;2.0;;
73421;SDS011;61637;47.760;-122.022;2023-09-19T08:12:01;12.9;;;2.1;;
73421;SDS011;61637;47.760;-122.022;2023-09-19T08:14:01;10.8;;;2.1;;
73421;SDS011;61637;47.760;-122.022;2023-09-19T08:16:01;12.4;;;2.3;;
73421;SDS011;61637;47.760;-122.022;2023-09-19T08:18:01;11.3;;;1.9;;
73421;SDS011;61637;47.760;-122.022;2023-09-19T08:20:01;12.2;;;2.1;;
73421;SDS011;61637;47.760;-122.022;2023-09-19T08:22:01;11.1;;;2.1;;
73421;SDS011;61637;47.760;-122.022;2023-09-19T08:24:01;11.1;;;2.1;;
73421;SDS011;61637;47.760;-122.022;2023-09-19T08:26:01;9.9;;;2.3;;
73421;SDS011;61637;47.760;-122.022;2023-09-19T08:28:01;12.3;;;2.3;;
73421;SDS011;61637;47.760;-122.022;2023-09-19T08:30:01;12.3;;;2.0;;
73421;SDS011;61637;47.760;-122.022;2023-09-19T08:32:01;15.5;;;2.2;;
73421;SDS011;61637;47.760;-122.022;2023-09-19T08:34:01;11.3;;;1.9;;
73421;SDS011;61637;47.760;-122.022;2023-09-19T08:36:01;10.7;;;1.9;;
73421;SDS011;61637;47.760;-122.022;2023-09-19T08:38:01;14.1;;;2.3;;
73421;SDS011;61637;47.760;-122.022;2023-09-19T08:40:01;12.0;;;2.0;;
73421;SDS011;61637;47.760;-122.022;2023-09-19T08:42:02;15.7;;;2.4;;
73421;SDS011;61637;47.760;-122.022;2023-09-19T08:44:01;13.2;;;2.1;;
73421;SDS011;61637;47.760;-122.022;2023-09-19T08:46:09;9.0;;;2.1;;
73421;SDS011;61637;47.760;-122.022;2023-09-19T08:48:09;13.0;;;2.3;;
73421;SDS011;61637;47.760;-122.022;2023-09-19T08:50:07;14.8;;;2.0;;
73421;SDS011;61637;47.760;-122.022;2023-09-19T08:52:07;12.3;;;2.2;;
73421;SDS011;61637;47.760;-122.022;2023-09-19T08:54:06;11.5;;;2.0;;
73421;SDS011;61637;47.760;-122.022;2023-09-19T08:56:02;12.1;;;2.2;;
73421;SDS011;61637;47.760;-122.022;2023-09-19T08:58:03;10.7;;;2.0;;
73421;SDS011;61637;47.760;-122.022;2023-09-19T09:00:02;11.7;;;2.0;;
73421;SDS011;61637;47.760;-122.022;2023-09-19T09:02:01;11.4;;;1.9;;
73421;SDS011;61637;47.760;-122.022;2023-09-19T09:04:02;13.1;;;2.4;;
73421;SDS011;61637;47.760;-122.022;2023-09-19T09:06:01;11.9;;;2.0;;
73421;SDS011;61637;47.760;-122.022;2023-09-19T09:08:02;12.6;;;2.3;;
73421;SDS011;61637;47.760;-122.022;2023-09-19T09:10:02;13.0;;;2.2;;
73421;SDS011;61637;47.760;-122.022;2023-09-19T09:12:02;12.5;;;2.0;;
73421;SDS011;61637;47.760;-122.022;2023-09-19T09:14:01;12.7;;;2.2;;
73421;SDS011;61637;47.760;-122.022;2023-09-19T09:16:01;10.4;;;1.8;;
73421;SDS011;61637;47.760;-122.022;2023-09-19T09:18:03;11.0;;;2.2;;
73421;SDS011;61637;47.760;-122.022;2023-09-19T09:20:01;10.9;;;1.9;;
73421;SDS011;61637;47.760;-122.022;2023-09-19T09:22:09;12.9;;;2.1;;
73421;SDS011;61637;47.760;-122.022;2023-09-19T09:26:01;13.7;;;2.0;;
73421;SDS011;61637;47.760;-122.022;2023-09-19T09:28:01;13.3;;;2.2;;
73421;SDS011;61637;47.760;-122.022;2023-09-19T09:30:00;12.2;;;2.0;;
73421;SDS011;61637;47.760;-122.022;2023-09-19T09:32:19;12.5;;;2.0;;
73421;SDS011;61637;47.760;-122.022;2023-09-19T09:34:01;8.8;;;2.1;;
73421;SDS011;61637;47.760;-122.022;2023-09-19T09:36:02;10.3;;;2.1;;
73421;SDS011;61637;47.760;-122.022;2023-09-19T09:38:00;11.9;;;2.1;;
73421;SDS011;61637;47.760;-122.022;2023-09-19T09:40:02;12.2;;;2.0;;
73421;SDS011;61637;47.760;-122.022;2023-09-19T09:42:00;12.5;;;2.0;;
73421;SDS011;61637;47.760;-122.022;2023-09-19T09:44:12;12.0;;;2.0;;
73421;SDS011;61637;47.760;-122.022;2023-09-19T09:46:12;9.6;;;1.9;;
73421;SDS011;61637;47.760;-122.022;2023-09-19T09:48:01;10.9;;;1.9;;
73421;SDS011;61637;47.760;-122.022;2023-09-19T09:50:01;11.8;;;1.9;;
73421;SDS011;61637;47.760;-122.022;2023-09-19T09:52:02;12.4;;;2.0;;
73421;SDS011;61637;47.760;-122.022;2023-09-19T09:54:10;13.2;;;2.2;;
73421;SDS011;61637;47.760;-122.022;2023-09-19T09:56:02;9.3;;;1.6;;
73421;SDS011;61637;47.760;-122.022;2023-09-19T09:58:18;10.5;;;2.0;;
73421;SDS011;61637;47.760;-122.022;2023-09-19T10:00:01;10.1;;;1.9;;
73421;SDS011;61637;47.760;-122.022;2023-09-19T10:02:01;7.7;;;1.8;;
73421;SDS011;61637;47.760;-122.022;2023-09-19T10:04:01;9.5;;;1.8;;
73421;SDS011;61637;47.760;-122.022;2023-09-19T10:06:01;12.4;;;1.8;;
73421;SDS011;61637;47.760;-122.022;2023-09-19T10:08:11;10.8;;;1.7;;
73421;SDS011;61637;47.760;-122.022;2023-09-19T10:10:02;11.0;;;1.6;;
73421;SDS011;61637;47.760;-122.022;2023-09-19T10:12:05;9.4;;;2.0;;
73421;SDS011;61637;47.760;-122.022;2023-09-19T10:14:03;11.9;;;2.0;;
73421;SDS011;61637;47.760;-122.022;2023-09-19T10:16:06;12.8;;;2.0;;
73421;SDS011;61637;47.760;-122.022;2023-09-19T10:18:02;16.8;;;2.3;;
73421;SDS011;61637;47.760;-122.022;2023-09-19T10:20:01;9.8;;;1.8;;
73421;SDS011;61637;47.760;-122.022;2023-09-19T10:22:02;10.2;;;2.1;;
73421;SDS011;61637;47.760;-122.022;2023-09-19T10:24:02;9.7;;;1.7;;
73421;SDS011;61637;47.760;-122.022;2023-09-19T10:26:01;12.8;;;2.1;;
73421;SDS011;61637;47.760;-122.022;2023-09-19T10:28:01;11.1;;;1.9;;
73421;SDS011;61637;47.760;-122.022;2023-09-19T10:30:01;11.2;;;1.8;;
73421;SDS011;61637;47.760;-122.022;2023-09-19T10:32:03;9.8;;;2.0;;
73421;SDS011;61637;47.760;-122.022;2023-09-19T10:34:03;14.9;;;2.2;;
73421;SDS011;61637;47.760;-122.022;2023-09-19T10:36:03;10.3;;;1.8;;
73421;SDS011;61637;47.760;-122.022;2023-09-19T10:38:01;10.6;;;1.9;;
73421;SDS011;61637;47.760;-122.022;2023-09-19T10:40:01;11.7;;;1.9;;
73421;SDS011;61637;47.760;-122.022;2023-09-19T10:42:02;9.8;;;2.1;;
73421;SDS011;61637;47.760;-122.022;2023-09-19T10:44:02;15.3;;;2.4;;
73421;SDS011;61637;47.760;-122.022;2023-09-19T10:46:02;11.4;;;1.9;;
73421;SDS011;61637;47.760;-122.022;2023-09-19T10:48:02;9.0;;;1.6;;
73421;SDS011;61637;47.760;-122.022;2023-09-19T10:50:01;11.1;;;1.9;;
73421;SDS011;61637;47.760;-122.022;2023-09-19T10:52:01;10.0;;;1.7;;
73421;SDS011;61637;47.760;-122.022;2023-09-19T10:54:06;9.4;;;1.7;;
73421;SDS011;61637;47.760;-122.022;2023-09-19T10:56:02;8.8;;;1.9;;
73421;SDS011;61637;47.760;-122.022;2023-09-19T10:58:01;8.8;;;1.6;;
73421;SDS011;61637;47.760;-122.022;2023-09-19T11:00:02;9.0;;;1.6;;
73421;SDS011;61637;47.760;-122.022;2023-09-19T11:02:18;12.8;;;1.7;;
73421;SDS011;61637;47.760;-122.022;2023-09-19T11:06:04;9.4;;;1.5;;
73421;SDS011;61637;47.760;-122.022;2023-09-19T11:08:01;12.9;;;1.9;;
73421;SDS011;61637;47.760;-122.022;2023-09-19T11:10:01;13.6;;;1.7;;
73421;SDS011;61637;47.760;-122.022;2023-09-19T11:12:01;10.5;;;1.7;;
73421;SDS011;61637;47.760;-122.022;2023-09-19T11:14:14;8.6;;;1.8;;
73421;SDS011;61637;47.760;-122.022;2023-09-19T11:16:04;11.3;;;2.0;;
73421;SDS011;61637;47.760;-122.022;2023-09-19T11:18:01;11.8;;;1.8;;
73421;SDS011;61637;47.760;-122.022;2023-09-19T11:22:01;9.9;;;1.6;;
73421;SDS011;61637;47.760;-122.022;2023-09-19T11:26:00;13.0;;;1.8;;
73421;SDS011;61637;47.760;-122.022;2023-09-19T11:32:01;10.2;;;1.9;;
73421;SDS011;61637;47.760;-122.022;2023-09-19T11:36:03;8.8;;;1.7;;
73421;SDS011;61637;47.760;-122.022;2023-09-19T11:38:01;10.8;;;1.8;;
73421;SDS011;61637;47.760;-122.022;2023-09-19T11:40:09;10.0;;;1.9;;
73421;SDS011;61637;47.760;-122.022;2023-09-19T11:46:05;10.5;;;1.6;;
73421;SDS011;61637;47.760;-122.022;2023-09-19T11:48:02;12.9;;;2.0;;
73421;SDS011;61637;47.760;-122.022;2023-09-19T11:50:01;9.3;;;1.8;;
73421;SDS011;61637;47.760;-122.022;2023-09-19T11:52:02;9.1;;;1.6;;
73421;SDS011;61637;47.760;-122.022;2023-09-19T11:54:03;10.6;;;1.7;;
73421;SDS011;61637;47.760;-122.022;2023-09-19T11:56:01;9.7;;;1.9;;
73421;SDS011;61637;47.760;-122.022;2023-09-19T11:58:01;10.3;;;1.6;;
73421;SDS011;61637;47.760;-122.022;2023-09-19T12:00:02;9.0;;;1.7;;